createdAt,value
2022-10-18T00:01:01.543Z,101883.00
2022-10-18T00:03:29.701Z,101877.09
2022-10-18T00:05:57.626Z,101881.91
2022-10-18T00:08:25.773Z,101880.75
2022-10-18T00:10:54.110Z,101883.66
2022-10-18T00:13:22.614Z,101888.56
2022-10-18T00:15:53.654Z,101883.28
2022-10-18T00:18:22.264Z,101881.88
2022-10-18T00:20:59.191Z,101881.84
2022-10-18T00:23:28.288Z,101880.88
2022-10-18T00:26:04.931Z,101886.56
2022-10-18T00:28:33.639Z,101890.53
2022-10-18T00:31:13.246Z,101893.94
2022-10-18T00:33:41.850Z,101900.81
2022-10-18T00:36:10.049Z,101903.97
2022-10-18T00:38:38.702Z,101906.25
2022-10-18T00:41:08.422Z,101906.13
2022-10-18T00:43:55.202Z,101895.38
2022-10-18T00:46:25.403Z,101906.59
2022-10-18T00:51:31.691Z,101894.13
2022-10-18T00:53:59.970Z,101898.94
2022-10-18T00:56:28.102Z,101902.81
2022-10-18T00:58:56.502Z,101903.44
2022-10-18T01:01:28.300Z,101903.19
2022-10-18T01:03:57.773Z,101910.13
2022-10-18T01:06:28.161Z,101904.13
2022-10-18T01:09:07.787Z,101907.09
2022-10-18T01:12:02.143Z,101898.16
2022-10-18T01:14:42.438Z,101907.97
2022-10-18T01:17:17.548Z,101903.34
2022-10-18T01:20:12.488Z,101912.88
2022-10-18T01:22:49.670Z,101909.97
2022-10-18T01:25:31.426Z,101909.41
2022-10-18T01:28:07.804Z,101903.81
2022-10-18T01:30:42.468Z,101902.13
2022-10-18T01:33:23.771Z,101903.34
2022-10-18T01:35:55.975Z,101891.72
2022-10-18T01:38:26.116Z,101889.47
2022-10-18T01:40:56.202Z,101890.91
2022-10-18T01:43:26.365Z,101887.22
2022-10-18T01:45:57.622Z,101888.66
2022-10-18T01:48:25.763Z,101888.75
2022-10-18T01:50:54.033Z,101890.03
2022-10-18T01:53:23.869Z,101898.75
2022-10-18T01:55:58.517Z,101910.53
2022-10-18T01:58:32.603Z,101900.28
2022-10-18T02:01:05.408Z,101904.56
2022-10-18T02:03:36.777Z,101897.16
2022-10-18T02:06:10.235Z,101887.91
2022-10-18T02:08:42.725Z,101892.09
2022-10-18T02:11:12.555Z,101886.78
2022-10-18T02:13:44.470Z,101892.50
2022-10-18T02:16:18.070Z,101889.97
2022-10-18T02:18:51.403Z,101888.00
2022-10-18T02:21:22.407Z,101889.13
2022-10-18T02:23:51.132Z,101894.47
2022-10-18T02:26:19.584Z,101907.91
2022-10-18T02:28:47.661Z,101907.50
2022-10-18T02:31:21.682Z,101901.22
2022-10-18T02:33:54.148Z,101900.09
2022-10-18T02:36:28.685Z,101903.72
2022-10-18T02:39:01.485Z,101907.31
2022-10-18T02:41:31.801Z,101904.38
2022-10-18T02:43:59.982Z,101911.84
2022-10-18T02:46:29.277Z,101912.69
2022-10-18T02:48:57.051Z,101930.59
2022-10-18T02:51:25.364Z,101917.56
2022-10-18T02:53:53.263Z,101913.47
2022-10-18T02:56:21.075Z,101925.63
2022-10-18T02:58:48.876Z,101917.06
2022-10-18T03:01:16.910Z,101923.81
2022-10-18T03:03:46.146Z,101917.25
2022-10-18T03:06:14.091Z,101924.41
2022-10-18T03:08:41.921Z,101919.59
2022-10-18T03:11:09.667Z,101925.91
2022-10-18T03:13:37.491Z,101921.47
2022-10-18T03:16:05.834Z,101924.34
2022-10-18T03:18:33.982Z,101927.28
2022-10-18T03:21:06.691Z,101948.09
2022-10-18T03:23:34.505Z,101954.72
2022-10-18T03:26:02.682Z,101965.88
2022-10-18T03:28:30.647Z,101963.94
2022-10-18T03:31:01.205Z,101959.44
2022-10-18T03:33:29.062Z,101947.53
2022-10-18T03:35:56.962Z,101941.94
2022-10-18T03:38:26.086Z,101940.31
2022-10-18T03:40:53.881Z,101930.38
2022-10-18T03:43:22.221Z,101925.53
2022-10-18T03:45:50.024Z,101922.88
2022-10-18T03:48:17.890Z,101927.63
2022-10-18T03:50:45.936Z,101930.50
2022-10-18T03:53:13.724Z,101935.97
2022-10-18T03:55:42.869Z,101942.50
2022-10-18T03:58:11.130Z,101940.31
2022-10-18T04:00:39.071Z,101941.00
2022-10-18T04:03:06.836Z,101937.44
2022-10-18T04:05:35.233Z,101931.03
2022-10-18T04:08:03.673Z,101933.09
2022-10-18T04:10:32.029Z,101931.91
2022-10-18T04:13:01.242Z,101939.97
2022-10-18T04:15:29.014Z,101943.41
2022-10-18T04:17:57.756Z,101942.31
2022-10-18T04:20:25.775Z,101937.72
2022-10-18T04:22:55.050Z,101942.41
2022-10-18T04:25:23.390Z,101940.97
2022-10-18T04:27:51.375Z,101935.91
2022-10-18T04:30:20.612Z,101935.22
2022-10-18T04:32:48.633Z,101925.88
2022-10-18T04:35:16.650Z,101945.06
2022-10-18T04:37:44.527Z,101941.25
2022-10-18T04:40:13.673Z,101948.47
2022-10-18T04:42:41.870Z,101947.44
2022-10-18T04:45:10.529Z,101945.72
2022-10-18T04:47:39.875Z,101950.06
2022-10-18T04:50:08.307Z,101950.00
2022-10-18T04:52:36.433Z,101940.16
2022-10-18T04:55:04.827Z,101947.97
2022-10-18T04:57:33.074Z,101934.81
2022-10-18T05:00:01.350Z,101934.34
2022-10-18T05:02:29.464Z,101936.56
2022-10-18T05:04:58.763Z,101939.94
2022-10-18T05:07:26.681Z,101936.19
2022-10-18T05:09:54.439Z,101935.44
2022-10-18T05:12:22.911Z,101942.06
2022-10-18T05:14:50.782Z,101938.31
2022-10-18T05:17:18.586Z,101934.34
2022-10-18T05:19:46.419Z,101931.50
2022-10-18T05:22:15.677Z,101942.81
2022-10-18T05:24:43.532Z,101936.50
2022-10-18T05:27:11.601Z,101930.00
2022-10-18T05:29:39.593Z,101931.50
2022-10-18T05:32:07.500Z,101935.09
2022-10-18T05:34:35.427Z,101942.28
2022-10-18T05:37:03.505Z,101950.44
2022-10-18T05:39:33.054Z,101941.34
2022-10-18T05:42:01.000Z,101937.22
2022-10-18T05:44:28.898Z,101934.22
2022-10-18T05:46:56.882Z,101937.72
2022-10-18T05:49:25.239Z,101937.25
2022-10-18T05:51:53.089Z,101935.66
2022-10-18T05:54:21.376Z,101938.31
2022-10-18T05:56:50.777Z,101942.19
2022-10-18T05:59:18.996Z,101942.06
2022-10-18T06:01:47.058Z,101947.94
2022-10-18T06:04:14.880Z,101953.59
2022-10-18T06:06:42.753Z,101954.44
2022-10-18T06:09:10.878Z,101955.22
2022-10-18T06:11:38.796Z,101964.47
2022-10-18T06:14:09.287Z,101956.75
2022-10-18T06:19:10.142Z,101935.03
2022-10-18T06:21:38.172Z,101937.44
2022-10-18T06:24:07.780Z,101938.03
2022-10-18T06:26:35.897Z,101939.47
2022-10-18T06:29:04.003Z,101950.09
2022-10-18T06:31:33.155Z,101954.53
2022-10-18T06:34:00.916Z,101941.16
2022-10-18T06:36:28.944Z,101944.00
2022-10-18T06:38:57.601Z,101955.34
2022-10-18T06:41:25.848Z,101952.59
2022-10-18T06:43:57.406Z,101943.56
2022-10-18T06:46:25.899Z,101943.81
2022-10-18T06:48:55.210Z,101952.59
2022-10-18T06:51:22.982Z,101954.59
2022-10-18T06:54:06.082Z,101966.81
2022-10-18T06:56:39.254Z,101962.25
2022-10-18T06:59:07.163Z,101969.59
2022-10-18T07:01:34.996Z,101967.56
2022-10-18T07:04:04.733Z,101957.34
2022-10-18T07:06:32.879Z,101969.28
2022-10-18T07:09:02.869Z,101962.56
2022-10-18T07:11:30.867Z,101964.00
2022-10-18T07:14:03.082Z,101966.78
2022-10-18T07:16:31.910Z,101970.31
2022-10-18T07:18:59.839Z,101978.00
2022-10-18T07:21:29.240Z,101987.13
2022-10-18T07:23:57.886Z,101997.00
2022-10-18T07:26:29.080Z,102000.63
2022-10-18T07:29:00.398Z,102013.19
2022-10-18T07:31:29.887Z,102008.34
2022-10-18T07:33:58.022Z,102014.91
2022-10-18T07:36:26.682Z,102009.31
2022-10-18T07:38:56.045Z,102023.72
2022-10-18T07:41:24.353Z,102018.19
2022-10-18T07:43:53.795Z,102014.94
2022-10-18T07:46:22.881Z,102014.25
2022-10-18T07:48:52.818Z,102021.50
2022-10-18T07:51:22.010Z,102021.28
2022-10-18T07:53:52.772Z,102007.03
2022-10-18T07:56:22.525Z,102005.22
2022-10-18T07:58:52.394Z,102004.59
2022-10-18T08:01:22.333Z,102000.03
2022-10-18T08:03:50.976Z,102004.38
2022-10-18T08:06:20.455Z,101997.75
2022-10-18T08:08:48.926Z,101998.69
2022-10-18T08:11:19.278Z,101993.75
2022-10-18T08:13:48.477Z,102001.34
2022-10-18T08:16:18.622Z,101995.31
2022-10-18T08:18:46.655Z,101997.84
2022-10-18T08:21:16.239Z,101983.63
2022-10-18T08:23:44.674Z,101983.75
2022-10-18T08:26:14.676Z,101986.25
2022-10-18T08:28:49.064Z,101976.56
2022-10-18T08:31:23.512Z,101979.81
2022-10-18T08:33:51.289Z,101982.78
2022-10-18T08:36:19.411Z,101989.78
2022-10-18T08:38:49.198Z,101989.44
2022-10-18T08:41:44.912Z,101999.88
2022-10-18T08:44:18.713Z,102005.59
2022-10-18T08:46:50.343Z,102000.50
2022-10-18T08:49:28.396Z,102001.22
2022-10-18T08:51:57.775Z,102001.72
2022-10-18T08:54:33.019Z,101994.63
2022-10-18T08:57:03.078Z,101998.56
2022-10-18T08:59:35.707Z,101994.66
2022-10-18T09:02:18.185Z,102000.75
2022-10-18T09:04:52.711Z,101993.41
2022-10-18T09:07:40.348Z,102000.84
2022-10-18T09:10:19.598Z,101997.13
2022-10-18T09:13:04.560Z,102001.47
2022-10-18T09:15:41.776Z,102002.94
2022-10-18T09:18:25.709Z,102006.41
2022-10-18T09:20:57.830Z,102010.31
2022-10-18T09:23:38.076Z,101996.31
2022-10-18T09:26:12.012Z,101993.22
2022-10-18T09:28:55.455Z,101995.53
2022-10-18T09:31:32.994Z,102002.59
2022-10-18T09:34:06.347Z,101985.25
2022-10-18T09:36:37.258Z,101992.81
2022-10-18T09:39:11.873Z,101989.66
2022-10-18T09:41:45.749Z,101990.50
2022-10-18T09:44:20.445Z,101990.94
2022-10-18T09:46:53.064Z,102006.00
2022-10-18T09:49:26.406Z,102006.06
2022-10-18T09:51:55.257Z,102008.63
2022-10-18T09:54:29.097Z,102012.13
2022-10-18T09:57:03.217Z,102006.47
2022-10-18T09:59:38.390Z,102005.00
2022-10-18T10:02:07.862Z,101997.34
2022-10-18T10:04:37.033Z,102003.28
2022-10-18T10:07:12.343Z,102004.00
2022-10-18T10:09:42.655Z,102012.31
2022-10-18T10:12:27.578Z,102008.97
2022-10-18T10:14:55.453Z,102005.03
2022-10-18T10:17:26.219Z,102005.44
2022-10-18T10:20:03.823Z,102001.03
2022-10-18T10:22:37.056Z,102007.63
2022-10-18T10:25:06.676Z,102011.34
2022-10-18T10:27:41.071Z,102005.78
2022-10-18T10:30:24.936Z,102001.91
2022-10-18T10:32:53.862Z,102007.09
2022-10-18T10:35:54.430Z,102007.69
2022-10-18T10:38:25.841Z,102000.22
2022-10-18T10:40:58.353Z,102007.41
2022-10-18T10:43:43.794Z,102009.69
2022-10-18T10:46:14.011Z,102002.91
2022-10-18T10:49:04.462Z,102012.59
2022-10-18T10:51:45.196Z,101987.22
2022-10-18T10:54:16.574Z,101992.13
2022-10-18T10:56:55.201Z,101991.97
2022-10-18T10:59:28.170Z,101984.69
2022-10-18T11:02:20.688Z,101978.13
2022-10-18T11:04:50.149Z,101976.00
2022-10-18T11:07:27.104Z,101966.88
2022-10-18T11:10:02.327Z,101978.78
2022-10-18T11:12:34.749Z,101980.22
2022-10-18T11:15:15.218Z,101973.81
2022-10-18T11:17:45.976Z,101975.66
2022-10-18T11:20:23.946Z,101977.59
2022-10-18T11:23:01.959Z,101972.09
2022-10-18T11:25:49.589Z,101957.72
2022-10-18T11:28:25.148Z,101958.34
2022-10-18T11:31:08.054Z,101955.66
2022-10-18T11:34:08.226Z,101947.34
2022-10-18T11:36:49.448Z,101952.56
2022-10-18T11:39:42.233Z,101951.22
2022-10-18T11:42:20.863Z,101943.47
2022-10-18T11:44:59.033Z,101943.38
2022-10-18T11:47:34.408Z,101945.28
2022-10-18T11:50:14.254Z,101937.00
2022-10-18T11:52:54.973Z,101936.84
2022-10-18T11:55:37.793Z,101937.59
2022-10-18T11:58:23.513Z,101932.75
2022-10-18T12:00:57.754Z,101925.25
2022-10-18T12:03:31.393Z,101921.53
2022-10-18T12:06:04.867Z,101912.94
2022-10-18T12:08:37.371Z,101916.59
2022-10-18T12:11:14.479Z,101926.59
2022-10-18T12:13:48.224Z,101926.16
2022-10-18T12:16:17.490Z,101922.78
2022-10-18T12:21:25.732Z,101922.53
2022-10-18T12:23:58.424Z,101918.06
2022-10-18T12:26:29.684Z,101916.00
2022-10-18T12:29:09.443Z,101911.09
2022-10-18T12:31:41.884Z,101919.16
2022-10-18T12:34:25.577Z,101908.53
2022-10-18T12:37:05.859Z,101910.81
2022-10-18T12:39:44.158Z,101906.94
2022-10-18T12:42:29.755Z,101897.91
2022-10-18T12:45:02.979Z,101891.66
2022-10-18T12:47:31.909Z,101894.44
2022-10-18T12:50:01.631Z,101895.88
2022-10-18T12:52:33.549Z,101894.44
2022-10-18T12:55:05.660Z,101895.03
2022-10-18T12:58:22.834Z,101894.22
2022-10-18T13:01:02.883Z,101894.31
2022-10-18T13:03:40.992Z,101890.94
2022-10-18T13:06:08.926Z,101898.16
2022-10-18T13:08:41.771Z,101894.19
2022-10-18T13:11:43.020Z,101885.50
2022-10-18T13:14:44.221Z,101897.44
2022-10-18T13:17:31.195Z,101890.91
2022-10-18T13:20:25.423Z,101895.16
2022-10-18T13:23:07.753Z,101901.41
2022-10-18T13:25:49.197Z,101897.44
2022-10-18T13:28:28.321Z,101901.97
2022-10-18T13:31:05.217Z,101905.38
2022-10-18T13:33:35.986Z,101888.91
2022-10-18T13:36:06.423Z,101887.13
2022-10-18T13:38:40.213Z,101890.03
2022-10-18T13:41:10.223Z,101890.00
2022-10-18T13:44:19.804Z,101883.38
2022-10-18T13:47:11.708Z,101879.00
2022-10-18T13:49:54.833Z,101881.66
2022-10-18T13:52:36.274Z,101884.09
2022-10-18T13:55:26.842Z,101888.25
2022-10-18T13:58:07.147Z,101886.56
2022-10-18T14:00:51.222Z,101882.97
2022-10-18T14:06:29.069Z,101893.28
2022-10-18T14:09:09.494Z,101893.66
2022-10-18T14:11:53.171Z,101906.16
2022-10-18T14:14:29.925Z,101902.03
2022-10-18T14:17:05.558Z,101909.56
2022-10-18T14:19:39.674Z,101906.25
2022-10-18T14:22:13.782Z,101914.22
2022-10-18T14:24:44.580Z,101919.16
2022-10-18T14:27:19.039Z,101928.97
2022-10-18T14:29:47.713Z,101923.41
2022-10-18T14:32:26.384Z,101922.84
2022-10-18T14:35:27.217Z,101929.88
2022-10-18T14:37:44.776Z,101932.88
2022-10-18T14:40:28.356Z,101923.72
2022-10-18T14:42:56.211Z,101935.44
2022-10-18T14:45:24.824Z,101932.06
2022-10-18T14:47:52.662Z,101933.28
2022-10-18T14:50:30.590Z,101928.47
2022-10-18T14:52:58.899Z,101930.28
2022-10-18T14:55:28.767Z,101922.78
2022-10-18T14:57:56.834Z,101925.31
2022-10-18T15:00:31.206Z,101925.31
2022-10-18T15:02:59.453Z,101923.28
2022-10-18T15:05:28.724Z,101920.13
2022-10-18T15:07:59.600Z,101929.91
2022-10-18T15:10:32.132Z,101917.72
2022-10-18T15:13:11.127Z,101921.59
2022-10-18T15:15:40.608Z,101917.84
2022-10-18T15:18:09.323Z,101911.81
2022-10-18T15:20:42.915Z,101921.56
2022-10-18T15:23:23.324Z,101916.75
2022-10-18T15:25:52.159Z,101926.66
2022-10-18T15:28:28.426Z,101918.69
2022-10-18T15:30:58.317Z,101926.91
2022-10-18T15:33:27.940Z,101924.47
2022-10-18T15:35:57.301Z,101921.50
2022-10-18T15:38:27.952Z,101920.22
2022-10-18T15:40:56.345Z,101916.59
2022-10-18T15:43:46.249Z,101914.47
2022-10-18T15:46:31.190Z,101924.38
2022-10-18T15:49:38.118Z,101928.41
2022-10-18T15:52:37.845Z,101929.63
2022-10-18T15:55:39.866Z,101926.97
2022-10-18T15:58:14.460Z,101931.19
2022-10-18T16:00:43.465Z,101928.06
2022-10-18T16:03:13.612Z,101924.94
2022-10-18T16:05:42.456Z,101929.00
2022-10-18T16:08:20.691Z,101925.03
2022-10-18T16:10:48.610Z,101921.78
2022-10-18T16:13:16.514Z,101925.00
2022-10-18T16:15:44.643Z,101925.00
2022-10-18T16:18:16.025Z,101933.66
2022-10-18T16:20:44.171Z,101927.53
2022-10-18T16:23:20.571Z,101932.00
2022-10-18T16:25:49.302Z,101929.06
2022-10-18T16:28:19.301Z,101938.81
2022-10-18T16:30:53.750Z,101946.91
2022-10-18T16:33:22.149Z,101946.16
2022-10-18T16:35:50.709Z,101948.41
2022-10-18T16:38:35.189Z,101950.38
2022-10-18T16:41:04.559Z,101947.16
2022-10-18T16:43:32.961Z,101949.72
2022-10-18T16:46:00.818Z,101945.31
2022-10-18T16:48:29.592Z,101944.97
2022-10-18T16:50:59.132Z,101952.25
2022-10-18T16:53:28.082Z,101951.94
2022-10-18T16:55:59.505Z,101954.94
2022-10-18T16:58:29.138Z,101959.66
2022-10-18T17:00:58.000Z,101958.22
2022-10-18T17:03:28.467Z,101960.69
2022-10-18T17:05:56.862Z,101962.97
2022-10-18T17:08:27.791Z,101960.97
2022-10-18T17:10:59.205Z,101962.06
2022-10-18T17:13:27.606Z,101967.72
2022-10-18T17:15:56.172Z,101962.97
2022-10-18T17:18:27.421Z,101963.78
2022-10-18T17:20:56.529Z,101960.38
2022-10-18T17:23:24.538Z,101966.56
2022-10-18T17:26:06.693Z,101964.06
2022-10-18T17:28:38.733Z,101954.75
2022-10-18T17:31:08.115Z,101963.41
2022-10-18T17:33:36.141Z,101958.25
2022-10-18T17:36:04.199Z,101963.03
2022-10-18T17:38:32.646Z,101968.47
2022-10-18T17:41:00.789Z,101971.88
2022-10-18T17:43:28.917Z,101964.13
2022-10-18T17:45:58.178Z,101974.03
2022-10-18T17:48:28.184Z,101971.47
2022-10-18T17:50:56.124Z,101970.84
2022-10-18T17:53:28.405Z,101991.47
2022-10-18T17:56:02.453Z,101980.69
2022-10-18T17:58:31.172Z,101985.13
2022-10-18T18:01:09.932Z,101986.81
2022-10-18T18:03:38.611Z,101977.31
2022-10-18T18:06:14.805Z,101985.13
2022-10-18T18:08:42.733Z,101984.13
2022-10-18T18:11:10.755Z,101982.19
2022-10-18T18:13:38.749Z,101988.72
2022-10-18T18:16:16.894Z,101987.22
2022-10-18T18:18:45.326Z,101994.50
2022-10-18T18:21:13.623Z,101990.81
2022-10-18T18:23:41.543Z,101987.69
2022-10-18T18:26:09.535Z,101989.59
2022-10-18T18:28:38.342Z,101991.56
2022-10-18T18:31:13.335Z,101993.19
2022-10-18T18:33:43.340Z,101997.16
2022-10-18T18:36:12.035Z,101998.97
2022-10-18T18:38:42.592Z,101995.78
2022-10-18T18:41:15.720Z,101997.72
2022-10-18T18:43:46.232Z,101997.31
2022-10-18T18:46:16.442Z,101996.88
2022-10-18T18:48:46.093Z,102011.91
2022-10-18T18:51:17.235Z,102001.25
2022-10-18T18:53:46.776Z,101998.97
2022-10-18T18:56:16.237Z,102000.13
2022-10-18T18:58:45.120Z,101994.19
2022-10-18T19:01:17.156Z,101990.91
2022-10-18T19:03:47.894Z,101988.50
2022-10-18T19:06:17.909Z,101989.34
2022-10-18T19:08:46.931Z,101987.13
2022-10-18T19:11:17.468Z,101992.50
2022-10-18T19:13:46.303Z,101990.59
2022-10-18T19:16:23.658Z,101988.69
2022-10-18T19:18:58.886Z,101995.69
2022-10-18T19:21:29.299Z,102001.28
2022-10-18T19:23:58.070Z,102005.41
2022-10-18T19:26:30.476Z,102002.13
2022-10-18T19:29:03.172Z,102005.00
2022-10-18T19:31:31.221Z,101998.63
2022-10-18T19:34:00.468Z,102007.41
2022-10-18T19:36:29.921Z,102009.22
2022-10-18T19:38:58.626Z,102018.09
2022-10-18T19:41:28.726Z,102019.56
2022-10-18T19:43:57.196Z,102022.50
2022-10-18T19:46:25.457Z,102008.56
2022-10-18T19:48:54.164Z,102008.66
2022-10-18T19:51:27.013Z,102013.94
2022-10-18T19:53:56.672Z,102023.34
2022-10-18T19:56:25.414Z,102027.41
2022-10-18T19:58:53.565Z,102034.91
2022-10-18T20:01:22.181Z,102032.03
2022-10-18T20:03:50.287Z,102034.50
2022-10-18T20:06:18.361Z,102025.69
2022-10-18T20:08:47.904Z,102031.09
2022-10-18T20:11:17.564Z,102037.31
2022-10-18T20:13:45.592Z,102036.56
2022-10-18T20:16:15.613Z,102043.59
2022-10-18T20:18:44.130Z,102048.38
2022-10-18T20:21:14.628Z,102040.97
2022-10-18T20:23:43.783Z,102041.38
2022-10-18T20:26:18.085Z,102051.00
2022-10-18T20:28:48.901Z,102056.88
2022-10-18T20:31:19.029Z,102054.13
2022-10-18T20:33:48.035Z,102055.94
2022-10-18T20:36:19.958Z,102056.28
2022-10-18T20:38:50.894Z,102047.94
2022-10-18T20:41:22.427Z,102055.56
2022-10-18T20:43:54.624Z,102051.59
2022-10-18T20:46:23.043Z,102055.63
2022-10-18T20:48:51.810Z,102059.84
2022-10-18T20:51:28.505Z,102049.25
2022-10-18T20:53:56.641Z,102047.81
2022-10-18T20:56:27.652Z,102041.81
2022-10-18T20:58:57.535Z,102042.56
2022-10-18T21:01:27.515Z,102057.47
2022-10-18T21:03:57.649Z,102053.59
2022-10-18T21:06:27.550Z,102044.47
2022-10-18T21:08:56.756Z,102045.50
2022-10-18T21:11:27.345Z,102041.72
2022-10-18T21:13:57.444Z,102038.91
2022-10-18T21:16:25.676Z,102038.81
2022-10-18T21:18:53.769Z,102039.00
2022-10-18T21:21:23.779Z,102035.69
2022-10-18T21:23:52.028Z,102040.25
2022-10-18T21:26:21.954Z,102045.97
2022-10-18T21:28:52.590Z,102041.34
2022-10-18T21:31:24.674Z,102040.81
2022-10-18T21:33:55.179Z,102036.34
2022-10-18T21:36:23.540Z,102047.13
2022-10-18T21:38:51.809Z,102045.13
2022-10-18T21:41:21.329Z,102039.56
2022-10-18T21:44:12.555Z,102043.44
2022-10-18T21:46:42.892Z,102032.50
2022-10-18T21:49:11.338Z,102039.38
2022-10-18T21:51:41.625Z,102032.59
2022-10-18T21:54:13.554Z,102036.25
2022-10-18T21:56:41.551Z,102037.84
2022-10-18T21:59:12.869Z,102037.84
2022-10-18T22:01:43.559Z,102041.38
2022-10-18T22:04:20.766Z,102033.44
2022-10-18T22:06:48.622Z,102037.56
2022-10-18T22:09:16.741Z,102039.66
2022-10-18T22:11:47.402Z,102033.50
2022-10-18T22:14:15.295Z,102036.09
2022-10-18T22:16:44.494Z,102042.53
2022-10-18T22:19:12.916Z,102039.97
2022-10-18T22:21:41.020Z,102035.16
2022-10-18T22:24:10.392Z,102034.69
2022-10-18T22:26:40.130Z,102026.53
2022-10-18T22:29:11.383Z,102031.13
2022-10-18T22:31:42.095Z,102026.31
2022-10-18T22:38:42.327Z,102023.13
2022-10-18T22:41:12.334Z,102021.09
2022-10-18T22:43:42.057Z,102020.91
2022-10-18T22:46:11.782Z,102010.91
2022-10-18T22:48:40.213Z,102007.72
2022-10-18T22:51:08.535Z,102009.78
2022-10-18T22:53:37.464Z,102003.66
2022-10-18T22:56:07.602Z,102001.94
2022-10-18T22:58:35.691Z,101992.16
2022-10-18T23:01:05.303Z,101997.16
2022-10-18T23:03:33.560Z,102000.25
2022-10-18T23:06:03.720Z,102000.63
2022-10-18T23:08:31.622Z,102001.38
2022-10-18T23:11:00.801Z,102006.59
2022-10-18T23:13:29.959Z,102001.97
2022-10-18T23:16:04.401Z,102006.38
2022-10-18T23:18:33.747Z,102002.97
2022-10-18T23:21:03.132Z,102006.09
2022-10-18T23:23:34.721Z,102005.69
2022-10-18T23:26:04.583Z,102006.28
2022-10-18T23:28:35.889Z,102011.19
2022-10-18T23:31:09.069Z,102003.19
2022-10-18T23:33:37.430Z,102009.59
2022-10-18T23:36:06.388Z,102007.72
2022-10-18T23:38:34.728Z,102009.50
2022-10-18T23:41:02.665Z,102001.66
2022-10-18T23:43:30.435Z,102010.63
2022-10-18T23:45:59.587Z,102004.50
2022-10-18T23:48:27.670Z,102003.47
2022-10-18T23:50:56.005Z,102003.56
2022-10-18T23:53:24.055Z,102003.34
2022-10-18T23:55:54.640Z,102002.97
2022-10-18T23:58:22.580Z,102005.84
